• Join FlightAware (Why Join?)
  • Login
  • US Flag 
11:06AM EDT


 

Airport Tracker/Info


-or-


 

Live Flight TrackerFlight Track Log ✈ UAL1116 ✈ 31-Dec-2013 ✈ MMMX / MEX - KSFO

Flight Track Log - Related Links

Times and Time Zones

All times are in EST time to prevent confusion due to time zone crossing. See the UAL1116 flight status page for this flight to view local times or setup timezone preferences in your user account.

Time Position Orientation Groundspeed Altitude Reporting Facility
EST Latitude Longitude Course Direction KTS MPH feet Rate Location/Type
04:16PM 19.5529 -99.1469 313° West  Level FlightAware Approximate
04:17PM 19.6354 -99.2421 313° West  Level FlightAware Approximate
04:18PM 19.7178 -99.3374 313° West  Level FlightAware Approximate
04:19PM 19.8089 -99.4428 313° West  Level FlightAware Approximate
04:20PM 19.8999 -99.5484 313° West  Level FlightAware Approximate
04:21PM 19.9909 -99.6541 312° West  Level FlightAware Approximate
04:22PM 20.0818 -99.7599 312° West  Level FlightAware Approximate
04:23PM 20.1726 -99.8658 312° West  Level FlightAware Approximate
04:24PM 20.2633 -99.9719 312° West  Level FlightAware Approximate
04:25PM 20.3540 -100.0780 312° West  Level FlightAware Approximate
04:26PM 20.4447 -100.1843 312° West  Level FlightAware Approximate
04:27PM 20.5352 -100.2908 312° West  Level FlightAware Approximate
04:28PM 20.6258 -100.3973 312° West  Level FlightAware Approximate
04:29PM 20.7235 -100.4964 313° West  Level Estimated
04:30PM 20.8150 -100.6021 313° West  Level FlightAware Approximate
04:31PM 20.9065 -100.7079 313° West  Level FlightAware Approximate
04:32PM 20.9979 -100.8138 313° West  Level FlightAware Approximate
04:33PM 21.0893 -100.9199 313° West  Level FlightAware Approximate
04:34PM 21.1805 -101.0260 313° West  Level FlightAware Approximate
04:35PM 21.2718 -101.1324 313° West  Level FlightAware Approximate
04:36PM 21.3629 -101.2388 313° West  Level FlightAware Approximate
04:37PM 21.4540 -101.3454 313° West  Level FlightAware Approximate
04:38PM 21.5514 -101.4454 313° West  Level Estimated
04:39PM 21.6421 -101.5526 312° West  Level FlightAware Approximate
04:40PM 21.7327 -101.6598 312° West  Level FlightAware Approximate
04:41PM 21.8232 -101.7672 312° West  Level FlightAware Approximate
04:42PM 21.9136 -101.8748 312° West  Level FlightAware Approximate
04:43PM 22.0040 -101.9825 312° West  Level FlightAware Approximate
04:44PM 22.0943 -102.0903 312° West  Level FlightAware Approximate
04:45PM 22.1845 -102.1982 312° West  Level FlightAware Approximate
04:46PM 22.2817 -102.2991 313° West  Level Estimated
04:47PM 22.3726 -102.4064 313° West  Level FlightAware Approximate
04:48PM 22.4635 -102.5140 312° West  Level FlightAware Approximate
04:49PM 22.5543 -102.6217 312° West  Level FlightAware Approximate
04:50PM 22.6451 -102.7295 312° West  Level FlightAware Approximate
04:51PM 22.7358 -102.8374 312° West  Level FlightAware Approximate
04:52PM 22.8264 -102.9455 312° West  Level FlightAware Approximate
04:53PM 22.9232 -103.0471 312° West  Level Estimated
04:54PM 23.0103 -103.1587 310° West  Level FlightAware Approximate
04:55PM 23.1071 -103.2605 312° West  Level Estimated
04:56PM 23.1948 -103.3685 311° West  Level FlightAware Approximate
04:57PM 23.2825 -103.4766 311° West  Level FlightAware Approximate
04:58PM 23.3700 -103.5848 311° West  Level FlightAware Approximate
04:59PM 23.4575 -103.6932 311° West  Level FlightAware Approximate
05:00PM 23.5449 -103.8017 311° West  Level FlightAware Approximate
05:01PM 23.6323 -103.9103 311° West  Level FlightAware Approximate
05:02PM 23.7195 -104.0191 311° West  Level FlightAware Approximate
05:03PM 23.8067 -104.1281 311° West  Level FlightAware Approximate
05:04PM 23.8939 -104.2372 311° West  Level FlightAware Approximate
05:05PM 23.9887 -104.3383 312° West  Level Estimated
05:06PM 24.0763 -104.4471 311° West  Level FlightAware Approximate
05:07PM 24.1639 -104.5560 311° West  Level FlightAware Approximate
05:08PM 24.2513 -104.6651 311° West  Level FlightAware Approximate
05:09PM 24.3387 -104.7743 311° West  Level FlightAware Approximate
05:10PM 24.4260 -104.8837 311° West  Level FlightAware Approximate
05:11PM 24.5132 -104.9932 311° West  Level FlightAware Approximate
05:12PM 24.6004 -105.1029 311° West  Level FlightAware Approximate
05:13PM 24.6874 -105.2127 311° West  Level FlightAware Approximate
05:14PM 24.7744 -105.3227 311° West  Level FlightAware Approximate
05:15PM 24.8613 -105.4328 311° West  Level FlightAware Approximate
05:16PM 24.9559 -105.5351 311° West  Level Estimated
05:17PM 25.0431 -105.6451 311° West  Level FlightAware Approximate
05:18PM 25.1304 -105.7551 311° West  Level FlightAware Approximate
05:19PM 25.2175 -105.8654 311° West  Level FlightAware Approximate
05:20PM 25.3046 -105.9758 311° West  Level FlightAware Approximate
05:21PM 25.3915 -106.0863 311° West  Level FlightAware Approximate
05:22PM 25.4784 -106.1970 311° West  Level FlightAware Approximate
05:23PM 25.5652 -106.3079 311° West  Level FlightAware Approximate
05:24PM 25.6520 -106.4189 311° West  Level FlightAware Approximate
05:25PM 25.7386 -106.5301 311° West  Level FlightAware Approximate
05:26PM 25.8251 -106.6415 311° West  Level FlightAware Approximate
05:27PM 25.9116 -106.7530 311° West  Level FlightAware Approximate
05:28PM 25.9980 -106.8647 311° West  Level FlightAware Approximate
05:29PM 26.0843 -106.9765 311° West  Level FlightAware Approximate
05:30PM 26.1705 -107.0885 311° West  Level FlightAware Approximate
05:31PM 26.2566 -107.2007 311° West  Level FlightAware Approximate
05:32PM 26.3427 -107.3130 311° West  Level FlightAware Approximate
05:33PM 26.4286 -107.4255 310° West  Level FlightAware Approximate
05:34PM 26.5145 -107.5382 310° West  Level FlightAware Approximate
05:35PM 26.6084 -107.6426 310° West  Level Estimated
05:36PM 26.6901 -107.7592 308° West  Level FlightAware Approximate
05:37PM 26.7840 -107.8639 310° West  Level Estimated
05:38PM 26.8626 -107.9834 306° West  Level FlightAware Approximate
05:39PM 26.9565 -108.0882 310° West  Level Estimated
05:40PM 27.0403 -108.2032 309° West  Level FlightAware Approximate
05:41PM 27.1241 -108.3185 309° West  Level FlightAware Approximate
05:42PM 27.2077 -108.4339 309° West  Level FlightAware Approximate
05:43PM 27.2913 -108.5495 309° West  Level FlightAware Approximate
05:44PM 27.3748 -108.6653 309° West  Level FlightAware Approximate
05:45PM 27.4582 -108.7812 309° West  Level FlightAware Approximate
05:46PM 27.5414 -108.8973 309° West  Level FlightAware Approximate
05:47PM 27.6246 -109.0136 309° West  Level FlightAware Approximate
05:48PM 27.7077 -109.1301 309° West  Level FlightAware Approximate
05:49PM 27.8015 -109.2359 310° West  Level Estimated
05:50PM 27.8850 -109.3521 309° West  Level FlightAware Approximate
05:51PM 27.9685 -109.4685 309° West  Level FlightAware Approximate
05:52PM 28.0519 -109.5851 309° West  Level FlightAware Approximate
05:53PM 28.1352 -109.7018 309° West  Level FlightAware Approximate
05:54PM 28.2183 -109.8188 309° West  Level FlightAware Approximate
05:55PM 28.3014 -109.9359 309° West  Level FlightAware Approximate
05:56PM 28.3844 -110.0532 309° West  Level FlightAware Approximate
05:57PM 28.4673 -110.1707 309° West  Level FlightAware Approximate
05:58PM 28.5609 -110.2773 309° West  Level Estimated
05:59PM 28.6432 -110.3955 308° West  Level FlightAware Approximate
06:00PM 28.7254 -110.5139 308° West  Level FlightAware Approximate
06:01PM 28.8075 -110.6325 308° West  Level FlightAware Approximate
06:02PM 28.8895 -110.7513 308° West  Level FlightAware Approximate
06:03PM 28.9714 -110.8702 308° West  Level FlightAware Approximate
06:04PM 29.0651 -110.9774 329° Northwest  Level Estimated
06:05PM 29.1736 -111.0643 325° Northwest  Level FlightAware Approximate
06:06PM 29.2821 -111.1513 325° Northwest  Level FlightAware Approximate
06:07PM 29.3752 -111.2594 329° Northwest  Level Estimated
06:08PM 29.4892 -111.3369 329° Northwest  Level FlightAware Approximate
06:09PM 29.6031 -111.4145 329° Northwest  Level FlightAware Approximate
06:10PM 29.7171 -111.4923 329° Northwest  Level FlightAware Approximate
06:11PM 29.8309 -111.5703 329° Northwest  Level FlightAware Approximate
06:12PM 29.9447 -111.6484 329° Northwest  Level FlightAware Approximate
06:13PM 30.0585 -111.7268 329° Northwest  Level FlightAware Approximate
06:14PM 30.1722 -111.8053 329° Northwest  Level FlightAware Approximate
06:15PM 30.2859 -111.8840 329° Northwest  Level FlightAware Approximate
06:16PM 30.4010 -111.9639 329° Northwest  Level FlightAware Approximate
06:17PM 30.5160 -112.0439 329° Northwest  Level FlightAware Approximate
06:18PM 30.6309 -112.1242 329° Northwest  Level FlightAware Approximate
06:19PM 30.7458 -112.2046 329° Northwest  Level FlightAware Approximate
06:20PM 30.8607 -112.2852 329° Northwest  Level FlightAware Approximate
06:21PM 30.9500 -112.4019 328° Northwest  Level Estimated
06:22PM 31.0685 -112.4752 332° Northwest  Level FlightAware Approximate
06:23PM 31.1870 -112.5486 332° Northwest  Level FlightAware Approximate
06:24PM 31.3054 -112.6223 332° Northwest  Level FlightAware Approximate
06:25PM 31.3930 -112.7412 327° Northwest  Level Estimated
06:26PM 31.5115 -112.8149 332° Northwest  Level FlightAware Approximate
06:27PM 31.6300 -112.8888 332° Northwest  Level FlightAware Approximate
06:28PM 31.7484 -112.9629 332° Northwest  Level FlightAware Approximate
06:29PM 31.8342 -113.0842 327° Northwest  Level Estimated
06:30PM 31.9501 -113.1636 330° Northwest  Level FlightAware Approximate
06:31PM 32.0660 -113.2432 330° Northwest  Level FlightAware Approximate
06:32PM 32.1818 -113.3231 330° Northwest  Level FlightAware Approximate
06:33PM 32.2976 -113.4032 330° Northwest  Level FlightAware Approximate
06:34PM 32.4133 -113.4834 330° Northwest  Level FlightAware Approximate
06:35PM 32.5290 -113.5639 330° Northwest  Level FlightAware Approximate
06:36PM 32.6446 -113.6445 330° Northwest  Level FlightAware Approximate
06:37PM 32.7602 -113.7254 330° Northwest  Level FlightAware Approximate
06:38PM 32.8757 -113.8065 329° Northwest  Level FlightAware Approximate
06:39PM 32.9912 -113.8878 329° Northwest  Level FlightAware Approximate
06:40PM 33.0703 -114.0170 332° Northwest  Level Estimated
06:41PM 33.1492 -114.1465 326° Northwest  Level Estimated
06:42PM 33.2715 -114.2122 336° Northwest  Level FlightAware Approximate
06:43PM 33.3938 -114.2781 336° Northwest  Level FlightAware Approximate
06:44PM 33.5161 -114.3442 336° Northwest  Level FlightAware Approximate
06:45PM 33.6383 -114.4105 336° Northwest  Level FlightAware Approximate
06:46PM 33.7130 -114.5444 327° Northwest  Level Estimated
06:47PM 33.8312 -114.6206 332° Northwest  Level FlightAware Approximate
06:48PM 33.9494 -114.6971 332° Northwest  Level FlightAware Approximate
06:49PM 34.0675 -114.7737 332° Northwest  Level FlightAware Approximate
06:50PM 34.1856 -114.8506 332° Northwest  Level FlightAware Approximate
06:51PM 34.3036 -114.9277 332° Northwest  Level FlightAware Approximate
06:52PM 34.4216 -115.0050 332° Northwest  Level FlightAware Approximate
06:53PM 34.4890 -115.1448 327° Northwest  Level Estimated
06:54PM 34.6064 -115.2220 332° Northwest  Level FlightAware Approximate
06:55PM 34.7238 -115.2994 332° Northwest  Level FlightAware Approximate
06:56PM 34.8412 -115.3771 332° Northwest  Level FlightAware Approximate
06:57PM 34.9585 -115.4549 331° Northwest  Level FlightAware Approximate
06:58PM 35.0758 -115.5330 331° Northwest  Level FlightAware Approximate
06:59PM 35.1358 -115.6788 200° South  Level Estimated
07:00PM 35.0263 -115.7722 215° Southwest  Level FlightAware Approximate
07:01PM 34.9167 -115.8653 215° Southwest  Level FlightAware Approximate
07:02PM 34.8070 -115.9582 215° Southwest  Level FlightAware Approximate
07:03PM 34.9167 -115.8654 35° Northeast  Level FlightAware Approximate
07:04PM 34.9816 -116.0078 200° South  Level Estimated
07:05PM 34.8510 -116.0416 192° South  Level FlightAware Approximate
07:06PM 34.7203 -116.0754 192° South  Level FlightAware Approximate
07:06PM 32.2414 -116.4067 188° South 410 472 36,000  Level Los Angeles Center
07:07PM 34.5897 -116.1091 192° South  Level FlightAware Approximate
07:08PM 34.6618 -116.2457 200° South  Level Estimated
07:08PM 32.3028 -116.5194 303° West 408 470 35,900  Level Los Angeles Center
07:09PM 34.5289 -116.2622 186° South  Level FlightAware Approximate
07:09PM 32.3761 -116.6525 303° West 403 464 35,900  Level Los Angeles Center
07:10PM 34.6031 -116.3970 200° South  Level Estimated
07:10PM 32.4361 -116.7650 302° West 401 461 36,000  Level Los Angeles Center
07:11PM 34.4708 -116.4188 188° South  Level FlightAware Approximate
07:11PM 32.4983 -116.8753 304° West 400 460 36,000  Level Los Angeles Center
07:12PM 34.3384 -116.4404 188° South  Level FlightAware Approximate
07:12PM 32.5628 -116.9850 305° West 403 464 36,000  Level Los Angeles Center
07:13PM 32.6372 -117.0867 311° West 405 466 36,000  Level Los Angeles Center
07:14PM 32.7094 -117.1892 310° West 405 466 36,000 -60 Level Los Angeles Center
07:15PM 32.7831 -117.2892 311° West 401 461 35,900  Descending Los Angeles Center
07:16PM 32.8536 -117.3886 310° West 406 467 36,000  Climbing Los Angeles Center
07:17PM 32.9411 -117.5111 310° West 406 467 36,000  Level Los Angeles Center
07:18PM 33.0144 -117.6136 310° West 406 467 36,000  Level Los Angeles Center
07:19PM 33.0883 -117.7158 311° West 407 468 36,000  Level Los Angeles Center
07:25PM 33.5140 -118.3187 311° West 411 473 36,000  Level FlightAware ADS-B
07:25PM 33.5605 -118.3853 310° West 411 473 36,000  Level FlightAware ADS-B
07:26PM 33.6085 -118.4542 310° West 411 473 36,000  Level FlightAware ADS-B
07:26PM 33.6529 -118.5178 310° West 411 473 36,000  Level FlightAware ADS-B
07:27PM 33.7048 -118.5925 310° West 411 473 36,000  Level FlightAware ADS-B
07:28PM 33.7661 -118.6847 310° West 412 474 36,000  Level Los Angeles Center
07:33PM 34.1667 -119.1717 310° West 407 468 36,000  Level FlightAware ADS-B
07:34PM 34.2778 -119.3061 310° West 406 467 36,000  Level Los Angeles Center
07:35PM 34.3586 -119.4017 316° Northwest 406 467 36,000  Level Los Angeles Center
07:36PM 34.4386 -119.4983 315° West 408 470 36,000  Level Los Angeles Center
07:38PM 34.5189 -119.5950 315° West 407 468 36,000  Level Los Angeles Center
07:39PM 34.5994 -119.6903 316° Northwest 406 467 36,000  Level Los Angeles Center
07:40PM 34.6828 -119.7892 316° Northwest 407 468 36,000  Level Los Angeles Center
07:41PM 34.7628 -119.8856 315° West 407 468 36,000  Level Los Angeles Center
07:42PM 34.8439 -119.9828 315° West 409 471 36,000  Level Los Angeles Center
07:43PM 34.9242 -120.0797 315° West 406 467 36,000  Level Los Angeles Center
07:44PM 35.0183 -120.1922 316° Northwest 407 468 36,000  Level Los Angeles Center
07:45PM 35.0981 -120.2897 315° West 408 470 36,000  Level Los Angeles Center
07:46PM 35.1792 -120.3883 315° West 411 473 36,000  Level Los Angeles Center
07:47PM 35.2578 -120.4861 315° West 411 473 36,000  Level Los Angeles Center
07:48PM 35.3361 -120.5847 314° West 414 476 36,000  Level Los Angeles Center
07:49PM 35.4169 -120.6825 315° West 413 475 36,000  Level Los Angeles Center
07:50PM 35.5261 -120.7844 323° Northwest 414 476 36,000  Level Los Angeles Center
07:55PM 36.0170 -121.2530 323° Northwest 414 476 36,000 -180 Level FlightAware ADS-B
07:56PM 36.0836 -121.3178 323° Northwest 411 473 35,100 -2,100 Descending Oakland Center
07:57PM 36.1717 -121.4033 322° Northwest 404 465 32,300 -2,580 Descending Oakland Center
07:58PM 36.2611 -121.4886 322° Northwest 405 466 29,900 -2,160 Descending Oakland Center
08:04PM 36.7829 -121.9740 322° Northwest 338 389 16,600 -2,100 Descending FlightAware ADS-B
08:05PM 36.8312 -121.9870 348° North 330 380 15,500 -2,040 Descending FlightAware ADS-B
08:05PM 36.8785 -122.0000 348° North 327 376 14,500 -1,920 Descending FlightAware ADS-B
08:07PM 37.0068 -122.0330 348° North 321 369 11,800 -1,560 Descending FlightAware ADS-B
08:07PM 37.0510 -122.0440 349° North 311 358 11,500 -1,200 Descending FlightAware ADS-B
08:08PM 37.0927 -122.0550 348° North 306 352 10,600 -2,040 Descending FlightAware ADS-B
08:08PM 37.1140 -122.0610 347° North 309 356 10,000 -1,500 Descending FlightAware ADS-B
08:08PM 37.1370 -122.0670 348° North 312 359 9,800 -420 Descending FlightAware ADS-B
08:09PM 37.1582 -122.0730 347° North 312 359 9,800  Level FlightAware ADS-B
08:09PM 37.1809 -122.0790 348° North 311 358 9,800  Level FlightAware ADS-B
08:09PM 37.2021 -122.0850 347° North 301 346 9,800 -240 Level FlightAware ADS-B
08:09PM 37.2231 -122.0900 349° North 285 328 9,700 -780 Descending FlightAware ADS-B
08:10PM 37.2423 -122.0950 348° North 280 322 9,400 -1,440 Descending FlightAware ADS-B
08:10PM 37.2616 -122.1000 348° North 279 321 9,000 -1,620 Descending FlightAware ADS-B
08:10PM 37.2805 -122.1050 348° North 277 319 8,600 -1,380 Descending FlightAware ADS-B
08:10PM 37.3000 -122.1100 348° North 276 318 8,300 -1,560 Descending FlightAware ADS-B
08:11PM 37.3189 -122.1150 348° North 276 318 7,800 -1,800 Descending FlightAware ADS-B
08:11PM 37.3385 -122.1200 349° North 275 316 7,400 -1,560 Descending FlightAware ADS-B
08:11PM 37.3573 -122.1250 348° North 271 312 7,000 -1,620 Descending FlightAware ADS-B
08:11PM 37.3758 -122.1310 346° North 269 310 6,600 -1,740 Descending FlightAware ADS-B
08:12PM 37.3964 -122.1360 349° North 272 313 6,100 -1,860 Descending FlightAware ADS-B
08:12PM 37.4155 -122.1410 348° North 271 312 5,600 -1,800 Descending FlightAware ADS-B
08:12PM 37.4341 -122.1460 348° North 269 310 5,200 -1,620 Descending FlightAware ADS-B
08:13PM 37.4526 -122.1510 348° North 270 311 4,800 -1,560 Descending FlightAware ADS-B
08:13PM 37.4725 -122.1560 349° North 268 308 4,400 -1,140 Descending FlightAware ADS-B
08:13PM 37.4910 -122.1610 348° North 259 298 4,200 -720 Descending FlightAware ADS-B
08:13PM 37.5013 -122.1640 347° North 253 291 4,100 -480 Descending FlightAware ADS-B
08:13PM 37.5060 -122.1650 350° North 251 289 4,100 -780 Level FlightAware ADS-B
08:13PM 37.5099 -122.1670 338° Northwest 249 287 4,000 -600 Descending FlightAware ADS-B
08:13PM 37.5157 -122.1720 326° Northwest 246 283 4,000 -480 Level FlightAware ADS-B
08:14PM 37.5339 -122.1880 325° Northwest 232 267 3,800 -480 Descending FlightAware ADS-B
08:14PM 37.5385 -122.1920 325° Northwest 227 261 3,800 -720 Level FlightAware ADS-B
08:14PM 37.5412 -122.1950 319° Northwest 224 258 3,700 -780 Descending FlightAware ADS-B
08:14PM 37.5441 -122.1980 321° Northwest 221 254 3,700 -780 Level FlightAware ADS-B
08:14PM 37.5468 -122.2030 304° West 219 252 3,600 -780 Descending FlightAware ADS-B
08:14PM 37.5488 -122.2060 310° West 216 249 3,600 -780 Level FlightAware ADS-B
08:14PM 37.5506 -122.2110 294° West 213 245 3,500 -840 Descending FlightAware ADS-B
08:14PM 37.5550 -122.2230 295° West 202 232 3,400 -1,140 Descending FlightAware ADS-B
08:15PM 37.5596 -122.2350 296° West 197 227 3,100 -1,800 Descending FlightAware ADS-B
08:15PM 37.5651 -122.2480 298° West 197 227 2,700 -1,980 Descending FlightAware ADS-B
08:15PM 37.5712 -122.2630 297° West 195 224 2,200 -2,040 Descending FlightAware ADS-B
08:15PM 37.5778 -122.2780 299° West 198 228 1,700 -1,980 Descending FlightAware ADS-B
08:16PM 37.5841 -122.2940 296° West 192 221 1,200 -1,440 Descending FlightAware ADS-B
08:16PM 37.5899 -122.3080 298° West 180 207 1,000 -1,020 Descending FlightAware ADS-B
08:16PM 37.5983 -122.3270 299° West 167 192 600 -1,320 Descending FlightAware ADS-B
08:16PM 37.6033 -122.3380 300° West 157 181 200 -1,680 Descending FlightAware ADS-B
08:16PM 37.6049 -122.3420 297° West 154 177 100 -1,500 Descending FlightAware ADS-B
08:17PM 37.6107 -122.3560 298° West 146 168 -360 Descending FlightAware ADS-B